sensor_id;sensor_type;location;lat;lon;timestamp;P1;durP1;ratioP1;P2;durP2;ratioP2
71296;SDS011;59082;50.658;4.608;2022-07-09T00:00:18;2.35;;;1.40;;
71296;SDS011;59082;50.658;4.608;2022-07-09T00:05:14;2.00;;;1.20;;
71296;SDS011;59082;50.658;4.608;2022-07-09T00:07:41;1.70;;;1.08;;
71296;SDS011;59082;50.658;4.608;2022-07-09T00:10:13;2.95;;;1.30;;
71296;SDS011;59082;50.658;4.608;2022-07-09T00:12:41;3.05;;;0.90;;
71296;SDS011;59082;50.658;4.608;2022-07-09T00:15:14;1.70;;;1.20;;
71296;SDS011;59082;50.658;4.608;2022-07-09T00:17:42;1.47;;;0.80;;
71296;SDS011;59082;50.658;4.608;2022-07-09T00:20:13;1.88;;;1.13;;
71296;SDS011;59082;50.658;4.608;2022-07-09T00:22:41;0.90;;;0.57;;
71296;SDS011;59082;50.658;4.608;2022-07-09T00:25:10;2.20;;;0.80;;
71296;SDS011;59082;50.658;4.608;2022-07-09T00:27:41;1.23;;;0.75;;
71296;SDS011;59082;50.658;4.608;2022-07-09T00:32:39;1.77;;;1.45;;
71296;SDS011;59082;50.658;4.608;2022-07-09T00:35:05;2.00;;;1.30;;
71296;SDS011;59082;50.658;4.608;2022-07-09T00:37:31;3.03;;;2.15;;
71296;SDS011;59082;50.658;4.608;2022-07-09T00:39:56;1.40;;;0.83;;
71296;SDS011;59082;50.658;4.608;2022-07-09T00:42:28;2.53;;;0.70;;
71296;SDS011;59082;50.658;4.608;2022-07-09T00:44:59;6.65;;;2.28;;
71296;SDS011;59082;50.658;4.608;2022-07-09T00:47:27;2.88;;;1.90;;
71296;SDS011;59082;50.658;4.608;2022-07-09T00:49:55;2.67;;;1.55;;
71296;SDS011;59082;50.658;4.608;2022-07-09T00:52:27;2.20;;;1.30;;
71296;SDS011;59082;50.658;4.608;2022-07-09T00:54:55;1.70;;;1.17;;
71296;SDS011;59082;50.658;4.608;2022-07-09T00:57:24;5.22;;;1.65;;
71296;SDS011;59082;50.658;4.608;2022-07-09T00:59:51;2.22;;;1.23;;
71296;SDS011;59082;50.658;4.608;2022-07-09T01:02:20;2.60;;;1.52;;
71296;SDS011;59082;50.658;4.608;2022-07-09T01:07:22;2.47;;;1.37;;
71296;SDS011;59082;50.658;4.608;2022-07-09T01:09:53;2.03;;;1.10;;
71296;SDS011;59082;50.658;4.608;2022-07-09T01:12:25;2.60;;;1.92;;
71296;SDS011;59082;50.658;4.608;2022-07-09T01:14:53;3.60;;;2.42;;
71296;SDS011;59082;50.658;4.608;2022-07-09T01:17:19;3.85;;;2.05;;
71296;SDS011;59082;50.658;4.608;2022-07-09T01:19:45;3.77;;;2.13;;
71296;SDS011;59082;50.658;4.608;2022-07-09T01:22:12;3.60;;;2.15;;
71296;SDS011;59082;50.658;4.608;2022-07-09T01:24:43;3.33;;;2.45;;
71296;SDS011;59082;50.658;4.608;2022-07-09T01:27:11;2.50;;;2.30;;
71296;SDS011;59082;50.658;4.608;2022-07-09T01:29:43;5.30;;;2.95;;
71296;SDS011;59082;50.658;4.608;2022-07-09T01:32:16;4.95;;;2.40;;
71296;SDS011;59082;50.658;4.608;2022-07-09T01:34:48;4.60;;;2.58;;
71296;SDS011;59082;50.658;4.608;2022-07-09T01:37:15;3.15;;;2.53;;
71296;SDS011;59082;50.658;4.608;2022-07-09T01:42:28;4.60;;;2.47;;
71296;SDS011;59082;50.658;4.608;2022-07-09T01:44:53;4.97;;;2.22;;
71296;SDS011;59082;50.658;4.608;2022-07-09T01:47:25;3.33;;;2.33;;
71296;SDS011;59082;50.658;4.608;2022-07-09T01:49:52;4.05;;;2.15;;
71296;SDS011;59082;50.658;4.608;2022-07-09T01:52:19;4.85;;;2.10;;
71296;SDS011;59082;50.658;4.608;2022-07-09T01:57:14;3.50;;;2.03;;
71296;SDS011;59082;50.658;4.608;2022-07-09T01:59:42;2.10;;;1.90;;
71296;SDS011;59082;50.658;4.608;2022-07-09T02:02:14;3.25;;;1.75;;
71296;SDS011;59082;50.658;4.608;2022-07-09T02:04:43;3.92;;;1.90;;
71296;SDS011;59082;50.658;4.608;2022-07-09T02:07:13;3.45;;;2.08;;
71296;SDS011;59082;50.658;4.608;2022-07-09T02:09:40;3.65;;;2.00;;
71296;SDS011;59082;50.658;4.608;2022-07-09T02:12:07;2.57;;;2.37;;
71296;SDS011;59082;50.658;4.608;2022-07-09T02:17:02;2.53;;;1.70;;
71296;SDS011;59082;50.658;4.608;2022-07-09T02:21:58;2.65;;;1.67;;
71296;SDS011;59082;50.658;4.608;2022-07-09T02:24:26;4.07;;;2.43;;
71296;SDS011;59082;50.658;4.608;2022-07-09T02:26:53;4.45;;;2.20;;
71296;SDS011;59082;50.658;4.608;2022-07-09T02:29:21;2.30;;;1.70;;
71296;SDS011;59082;50.658;4.608;2022-07-09T02:34:23;3.47;;;2.30;;
71296;SDS011;59082;50.658;4.608;2022-07-09T02:36:51;3.97;;;2.03;;
71296;SDS011;59082;50.658;4.608;2022-07-09T02:39:17;4.78;;;2.22;;
71296;SDS011;59082;50.658;4.608;2022-07-09T02:41:44;3.55;;;2.08;;
71296;SDS011;59082;50.658;4.608;2022-07-09T02:44:15;4.57;;;1.70;;
71296;SDS011;59082;50.658;4.608;2022-07-09T02:46:41;3.63;;;1.98;;
71296;SDS011;59082;50.658;4.608;2022-07-09T02:49:12;3.63;;;2.17;;
71296;SDS011;59082;50.658;4.608;2022-07-09T02:51:40;4.23;;;2.30;;
71296;SDS011;59082;50.658;4.608;2022-07-09T02:54:11;2.80;;;2.05;;
71296;SDS011;59082;50.658;4.608;2022-07-09T02:56:37;2.45;;;1.85;;
71296;SDS011;59082;50.658;4.608;2022-07-09T03:01:33;4.57;;;2.42;;
71296;SDS011;59082;50.658;4.608;2022-07-09T03:04:02;4.17;;;2.33;;
71296;SDS011;59082;50.658;4.608;2022-07-09T03:06:29;3.85;;;2.25;;
71296;SDS011;59082;50.658;4.608;2022-07-09T03:08:57;2.85;;;2.22;;
71296;SDS011;59082;50.658;4.608;2022-07-09T03:11:25;2.83;;;2.20;;
71296;SDS011;59082;50.658;4.608;2022-07-09T03:13:52;2.67;;;2.47;;
71296;SDS011;59082;50.658;4.608;2022-07-09T03:16:24;3.33;;;2.20;;
71296;SDS011;59082;50.658;4.608;2022-07-09T03:18:49;2.70;;;2.05;;
71296;SDS011;59082;50.658;4.608;2022-07-09T03:21:21;3.58;;;2.47;;
71296;SDS011;59082;50.658;4.608;2022-07-09T03:23:49;2.97;;;2.10;;
71296;SDS011;59082;50.658;4.608;2022-07-09T03:26:16;3.03;;;2.53;;
71296;SDS011;59082;50.658;4.608;2022-07-09T03:28:45;3.25;;;2.45;;
71296;SDS011;59082;50.658;4.608;2022-07-09T03:31:16;2.15;;;1.63;;
71296;SDS011;59082;50.658;4.608;2022-07-09T03:33:45;4.97;;;2.25;;
71296;SDS011;59082;50.658;4.608;2022-07-09T03:36:21;3.57;;;1.90;;
71296;SDS011;59082;50.658;4.608;2022-07-09T03:38:50;4.43;;;2.05;;
71296;SDS011;59082;50.658;4.608;2022-07-09T03:41:24;3.53;;;2.00;;
71296;SDS011;59082;50.658;4.608;2022-07-09T03:43:51;3.35;;;2.10;;
71296;SDS011;59082;50.658;4.608;2022-07-09T03:53:57;2.30;;;2.08;;
71296;SDS011;59082;50.658;4.608;2022-07-09T03:56:24;3.38;;;2.03;;
71296;SDS011;59082;50.658;4.608;2022-07-09T03:58:55;4.43;;;2.40;;
71296;SDS011;59082;50.658;4.608;2022-07-09T04:01:21;3.07;;;2.33;;
71296;SDS011;59082;50.658;4.608;2022-07-09T04:03:46;3.35;;;2.13;;
71296;SDS011;59082;50.658;4.608;2022-07-09T04:08:41;1.95;;;1.77;;
71296;SDS011;59082;50.658;4.608;2022-07-09T04:11:09;3.17;;;2.47;;
71296;SDS011;59082;50.658;4.608;2022-07-09T04:13:36;4.20;;;2.25;;
71296;SDS011;59082;50.658;4.608;2022-07-09T04:16:01;3.22;;;2.58;;
71296;SDS011;59082;50.658;4.608;2022-07-09T04:18:28;4.30;;;2.33;;
71296;SDS011;59082;50.658;4.608;2022-07-09T04:20:59;2.83;;;2.35;;
71296;SDS011;59082;50.658;4.608;2022-07-09T04:23:26;3.50;;;2.45;;
71296;SDS011;59082;50.658;4.608;2022-07-09T04:25:58;4.00;;;2.47;;
71296;SDS011;59082;50.658;4.608;2022-07-09T04:28:26;7.47;;;2.60;;
71296;SDS011;59082;50.658;4.608;2022-07-09T04:30:53;3.80;;;2.95;;
71296;SDS011;59082;50.658;4.608;2022-07-09T04:35:48;4.75;;;2.47;;
71296;SDS011;59082;50.658;4.608;2022-07-09T04:38:19;3.90;;;2.80;;
71296;SDS011;59082;50.658;4.608;2022-07-09T04:40:48;4.68;;;2.70;;
71296;SDS011;59082;50.658;4.608;2022-07-09T04:43:19;4.85;;;2.53;;
71296;SDS011;59082;50.658;4.608;2022-07-09T04:45:46;5.40;;;2.78;;
71296;SDS011;59082;50.658;4.608;2022-07-09T04:50:42;3.83;;;3.00;;
71296;SDS011;59082;50.658;4.608;2022-07-09T04:53:10;3.63;;;2.40;;
71296;SDS011;59082;50.658;4.608;2022-07-09T04:55:38;3.90;;;2.70;;
71296;SDS011;59082;50.658;4.608;2022-07-09T04:58:03;4.10;;;2.50;;
71296;SDS011;59082;50.658;4.608;2022-07-09T05:00:31;4.03;;;2.67;;
71296;SDS011;59082;50.658;4.608;2022-07-09T05:02:58;3.15;;;2.00;;
71296;SDS011;59082;50.658;4.608;2022-07-09T05:05:25;2.95;;;2.33;;
71296;SDS011;59082;50.658;4.608;2022-07-09T05:07:52;4.30;;;2.40;;
71296;SDS011;59082;50.658;4.608;2022-07-09T05:10:23;4.50;;;2.38;;
71296;SDS011;59082;50.658;4.608;2022-07-09T05:12:51;5.20;;;3.20;;
71296;SDS011;59082;50.658;4.608;2022-07-09T05:15:17;2.80;;;1.75;;
71296;SDS011;59082;50.658;4.608;2022-07-09T05:17:43;4.25;;;2.45;;
71296;SDS011;59082;50.658;4.608;2022-07-09T05:20:11;3.85;;;2.10;;
71296;SDS011;59082;50.658;4.608;2022-07-09T05:22:38;3.73;;;2.27;;
71296;SDS011;59082;50.658;4.608;2022-07-09T05:25:10;4.65;;;2.20;;
71296;SDS011;59082;50.658;4.608;2022-07-09T05:27:43;4.60;;;2.28;;
71296;SDS011;59082;50.658;4.608;2022-07-09T05:30:11;4.30;;;1.85;;
71296;SDS011;59082;50.658;4.608;2022-07-09T05:32:45;2.70;;;2.25;;
71296;SDS011;59082;50.658;4.608;2022-07-09T05:35:10;3.17;;;1.97;;
71296;SDS011;59082;50.658;4.608;2022-07-09T05:40:15;6.47;;;3.40;;
71296;SDS011;59082;50.658;4.608;2022-07-09T05:45:10;3.22;;;2.40;;
71296;SDS011;59082;50.658;4.608;2022-07-09T05:47:41;3.27;;;2.80;;
71296;SDS011;59082;50.658;4.608;2022-07-09T05:50:07;3.72;;;2.45;;
71296;SDS011;59082;50.658;4.608;2022-07-09T05:52:34;5.45;;;2.67;;
71296;SDS011;59082;50.658;4.608;2022-07-09T05:55:02;5.07;;;3.00;;
71296;SDS011;59082;50.658;4.608;2022-07-09T05:57:30;5.05;;;2.65;;
71296;SDS011;59082;50.658;4.608;2022-07-09T05:59:58;5.20;;;2.37;;
71296;SDS011;59082;50.658;4.608;2022-07-09T06:02:24;4.38;;;2.17;;
71296;SDS011;59082;50.658;4.608;2022-07-09T06:07:20;3.97;;;2.30;;
71296;SDS011;59082;50.658;4.608;2022-07-09T06:09:47;4.55;;;2.60;;
71296;SDS011;59082;50.658;4.608;2022-07-09T06:12:17;5.23;;;3.23;;
71296;SDS011;59082;50.658;4.608;2022-07-09T06:17:11;5.50;;;4.35;;
71296;SDS011;59082;50.658;4.608;2022-07-09T06:19:39;5.77;;;4.37;;
71296;SDS011;59082;50.658;4.608;2022-07-09T06:22:05;8.15;;;4.18;;
71296;SDS011;59082;50.658;4.608;2022-07-09T06:24:31;7.03;;;3.07;;
71296;SDS011;59082;50.658;4.608;2022-07-09T06:26:56;8.75;;;3.70;;
71296;SDS011;59082;50.658;4.608;2022-07-09T06:29:28;6.28;;;3.33;;
71296;SDS011;59082;50.658;4.608;2022-07-09T06:31:54;9.50;;;4.03;;
71296;SDS011;59082;50.658;4.608;2022-07-09T06:34:25;8.82;;;5.25;;
71296;SDS011;59082;50.658;4.608;2022-07-09T06:36:51;5.95;;;3.88;;
71296;SDS011;59082;50.658;4.608;2022-07-09T06:39:17;5.73;;;3.30;;
71296;SDS011;59082;50.658;4.608;2022-07-09T06:42:05;8.88;;;4.13;;
71296;SDS011;59082;50.658;4.608;2022-07-09T06:44:33;5.13;;;4.07;;
71296;SDS011;59082;50.658;4.608;2022-07-09T06:46:59;7.88;;;5.15;;
71296;SDS011;59082;50.658;4.608;2022-07-09T06:49:25;6.82;;;3.40;;
71296;SDS011;59082;50.658;4.608;2022-07-09T06:51:52;6.87;;;3.10;;
71296;SDS011;59082;50.658;4.608;2022-07-09T06:54:17;4.13;;;3.30;;
71296;SDS011;59082;50.658;4.608;2022-07-09T06:56:43;7.27;;;3.80;;
71296;SDS011;59082;50.658;4.608;2022-07-09T06:59:08;7.37;;;2.93;;
71296;SDS011;59082;50.658;4.608;2022-07-09T07:01:34;4.25;;;2.85;;
71296;SDS011;59082;50.658;4.608;2022-07-09T07:03:59;5.93;;;3.20;;
71296;SDS011;59082;50.658;4.608;2022-07-09T07:06:25;7.73;;;2.70;;
71296;SDS011;59082;50.658;4.608;2022-07-09T07:08:50;3.55;;;2.38;;
71296;SDS011;59082;50.658;4.608;2022-07-09T07:11:16;4.60;;;2.43;;
71296;SDS011;59082;50.658;4.608;2022-07-09T07:13:42;3.93;;;2.13;;
71296;SDS011;59082;50.658;4.608;2022-07-09T07:21:07;3.13;;;2.30;;
71296;SDS011;59082;50.658;4.608;2022-07-09T07:23:35;3.60;;;2.05;;
71296;SDS011;59082;50.658;4.608;2022-07-09T07:28:30;6.35;;;2.25;;
71296;SDS011;59082;50.658;4.608;2022-07-09T07:35:52;3.35;;;2.00;;
71296;SDS011;59082;50.658;4.608;2022-07-09T07:38:18;4.38;;;1.70;;
71296;SDS011;59082;50.658;4.608;2022-07-09T07:40:45;3.47;;;1.80;;
71296;SDS011;59082;50.658;4.608;2022-07-09T07:43:11;5.22;;;2.00;;
71296;SDS011;59082;50.658;4.608;2022-07-09T07:45:43;2.25;;;2.00;;
71296;SDS011;59082;50.658;4.608;2022-07-09T07:50:40;4.47;;;3.00;;
71296;SDS011;59082;50.658;4.608;2022-07-09T07:55:35;3.40;;;2.05;;
71296;SDS011;59082;50.658;4.608;2022-07-09T07:58:02;4.70;;;1.95;;
71296;SDS011;59082;50.658;4.608;2022-07-09T08:02:57;4.27;;;1.87;;
71296;SDS011;59082;50.658;4.608;2022-07-09T08:05:23;3.28;;;1.90;;
71296;SDS011;59082;50.658;4.608;2022-07-09T08:07:50;3.45;;;1.55;;
71296;SDS011;59082;50.658;4.608;2022-07-09T08:12:44;4.68;;;2.00;;
71296;SDS011;59082;50.658;4.608;2022-07-09T08:15:11;4.13;;;2.20;;
71296;SDS011;59082;50.658;4.608;2022-07-09T08:20:06;3.38;;;1.90;;
71296;SDS011;59082;50.658;4.608;2022-07-09T08:22:33;3.58;;;2.30;;
71296;SDS011;59082;50.658;4.608;2022-07-09T08:25:02;2.63;;;1.80;;
71296;SDS011;59082;50.658;4.608;2022-07-09T08:27:29;3.50;;;1.65;;
71296;SDS011;59082;50.658;4.608;2022-07-09T08:30:01;2.60;;;1.47;;
71296;SDS011;59082;50.658;4.608;2022-07-09T08:32:32;5.57;;;1.45;;
71296;SDS011;59082;50.658;4.608;2022-07-09T08:34:59;2.53;;;1.30;;
71296;SDS011;59082;50.658;4.608;2022-07-09T08:37:25;2.47;;;1.33;;
71296;SDS011;59082;50.658;4.608;2022-07-09T08:39:52;3.67;;;1.60;;
71296;SDS011;59082;50.658;4.608;2022-07-09T08:42:19;5.53;;;1.40;;
71296;SDS011;59082;50.658;4.608;2022-07-09T08:44:47;2.95;;;1.90;;
71296;SDS011;59082;50.658;4.608;2022-07-09T08:47:15;5.25;;;1.60;;
71296;SDS011;59082;50.658;4.608;2022-07-09T08:49:41;3.60;;;1.53;;
71296;SDS011;59082;50.658;4.608;2022-07-09T08:52:13;2.25;;;1.42;;
71296;SDS011;59082;50.658;4.608;2022-07-09T08:54:43;3.42;;;1.27;;
71296;SDS011;59082;50.658;4.608;2022-07-09T08:57:12;3.90;;;1.70;;
71296;SDS011;59082;50.658;4.608;2022-07-09T08:59:37;4.13;;;1.70;;
71296;SDS011;59082;50.658;4.608;2022-07-09T09:02:07;6.67;;;1.43;;
71296;SDS011;59082;50.658;4.608;2022-07-09T09:04:40;3.70;;;1.30;;
71296;SDS011;59082;50.658;4.608;2022-07-09T09:07:13;3.35;;;1.58;;
71296;SDS011;59082;50.658;4.608;2022-07-09T09:09:43;2.78;;;1.63;;
71296;SDS011;59082;50.658;4.608;2022-07-09T09:12:12;5.10;;;1.60;;
71296;SDS011;59082;50.658;4.608;2022-07-09T09:17:15;4.88;;;2.67;;
71296;SDS011;59082;50.658;4.608;2022-07-09T09:19:40;2.50;;;1.60;;
71296;SDS011;59082;50.658;4.608;2022-07-09T09:22:07;4.35;;;2.00;;
71296;SDS011;59082;50.658;4.608;2022-07-09T09:24:32;4.20;;;1.80;;
71296;SDS011;59082;50.658;4.608;2022-07-09T09:27:01;4.05;;;1.88;;
71296;SDS011;59082;50.658;4.608;2022-07-09T09:29:27;3.13;;;2.22;;
71296;SDS011;59082;50.658;4.608;2022-07-09T09:31:56;3.60;;;1.88;;
71296;SDS011;59082;50.658;4.608;2022-07-09T09:34:34;3.15;;;2.15;;
71296;SDS011;59082;50.658;4.608;2022-07-09T09:37:07;5.90;;;2.00;;
71296;SDS011;59082;50.658;4.608;2022-07-09T09:39:33;3.67;;;1.83;;
71296;SDS011;59082;50.658;4.608;2022-07-09T09:42:01;3.72;;;1.90;;
71296;SDS011;59082;50.658;4.608;2022-07-09T09:44:32;3.58;;;2.13;;
71296;SDS011;59082;50.658;4.608;2022-07-09T09:47:03;4.25;;;2.22;;
71296;SDS011;59082;50.658;4.608;2022-07-09T09:49:37;3.47;;;2.60;;
71296;SDS011;59082;50.658;4.608;2022-07-09T09:54:37;5.43;;;2.20;;
71296;SDS011;59082;50.658;4.608;2022-07-09T09:57:09;2.75;;;1.60;;
71296;SDS011;59082;50.658;4.608;2022-07-09T09:59:37;3.38;;;1.90;;
71296;SDS011;59082;50.658;4.608;2022-07-09T10:02:04;4.40;;;1.53;;
71296;SDS011;59082;50.658;4.608;2022-07-09T10:04:35;2.72;;;1.27;;
71296;SDS011;59082;50.658;4.608;2022-07-09T10:07:11;3.42;;;1.70;;
71296;SDS011;59082;50.658;4.608;2022-07-09T10:09:51;2.60;;;1.30;;
71296;SDS011;59082;50.658;4.608;2022-07-09T10:12:30;4.80;;;1.48;;
71296;SDS011;59082;50.658;4.608;2022-07-09T10:14:58;3.43;;;2.07;;
71296;SDS011;59082;50.658;4.608;2022-07-09T10:17:26;2.00;;;1.35;;
71296;SDS011;59082;50.658;4.608;2022-07-09T10:20:02;2.28;;;1.83;;
71296;SDS011;59082;50.658;4.608;2022-07-09T10:22:36;3.17;;;1.65;;
71296;SDS011;59082;50.658;4.608;2022-07-09T10:25:03;4.80;;;2.50;;
71296;SDS011;59082;50.658;4.608;2022-07-09T10:30:31;2.97;;;2.25;;
71296;SDS011;59082;50.658;4.608;2022-07-09T10:33:09;4.05;;;1.98;;
71296;SDS011;59082;50.658;4.608;2022-07-09T10:35:48;4.50;;;2.90;;
71296;SDS011;59082;50.658;4.608;2022-07-09T10:38:21;4.13;;;2.20;;
71296;SDS011;59082;50.658;4.608;2022-07-09T10:40:58;4.05;;;2.83;;
71296;SDS011;59082;50.658;4.608;2022-07-09T10:43:41;4.50;;;2.80;;
71296;SDS011;59082;50.658;4.608;2022-07-09T10:46:25;3.05;;;2.55;;
71296;SDS011;59082;50.658;4.608;2022-07-09T10:48:51;3.47;;;2.80;;
71296;SDS011;59082;50.658;4.608;2022-07-09T10:51:20;5.27;;;2.60;;
71296;SDS011;59082;50.658;4.608;2022-07-09T10:56:19;3.17;;;2.30;;
71296;SDS011;59082;50.658;4.608;2022-07-09T11:01:18;4.82;;;3.70;;
71296;SDS011;59082;50.658;4.608;2022-07-09T11:03:49;5.27;;;2.80;;
71296;SDS011;59082;50.658;4.608;2022-07-09T11:06:15;7.00;;;3.20;;
71296;SDS011;59082;50.658;4.608;2022-07-09T11:08:43;7.22;;;3.05;;
71296;SDS011;59082;50.658;4.608;2022-07-09T11:11:09;4.80;;;4.33;;
71296;SDS011;59082;50.658;4.608;2022-07-09T11:13:34;5.32;;;4.25;;
71296;SDS011;59082;50.658;4.608;2022-07-09T11:16:00;7.43;;;5.90;;
71296;SDS011;59082;50.658;4.608;2022-07-09T11:18:28;6.47;;;5.32;;
71296;SDS011;59082;50.658;4.608;2022-07-09T11:20:56;6.72;;;6.13;;
71296;SDS011;59082;50.658;4.608;2022-07-09T11:23:22;11.43;;;9.63;;
71296;SDS011;59082;50.658;4.608;2022-07-09T11:25:47;8.33;;;7.60;;
71296;SDS011;59082;50.658;4.608;2022-07-09T11:28:24;11.50;;;10.45;;
71296;SDS011;59082;50.658;4.608;2022-07-09T11:30:58;13.40;;;11.83;;
71296;SDS011;59082;50.658;4.608;2022-07-09T11:33:28;12.02;;;10.82;;
71296;SDS011;59082;50.658;4.608;2022-07-09T11:36:17;15.40;;;13.40;;
71296;SDS011;59082;50.658;4.608;2022-07-09T11:38:47;13.77;;;10.82;;
71296;SDS011;59082;50.658;4.608;2022-07-09T11:43:45;12.87;;;11.57;;
71296;SDS011;59082;50.658;4.608;2022-07-09T11:46:18;12.43;;;11.13;;
71296;SDS011;59082;50.658;4.608;2022-07-09T11:48:54;12.07;;;9.27;;
71296;SDS011;59082;50.658;4.608;2022-07-09T11:51:34;10.88;;;8.80;;
71296;SDS011;59082;50.658;4.608;2022-07-09T11:54:01;13.65;;;9.30;;
71296;SDS011;59082;50.658;4.608;2022-07-09T11:56:39;7.77;;;6.77;;
71296;SDS011;59082;50.658;4.608;2022-07-09T11:59:05;8.23;;;6.88;;
71296;SDS011;59082;50.658;4.608;2022-07-09T12:01:30;6.63;;;5.93;;
71296;SDS011;59082;50.658;4.608;2022-07-09T12:03:56;6.30;;;5.70;;
71296;SDS011;59082;50.658;4.608;2022-07-09T12:06:22;7.03;;;5.15;;
71296;SDS011;59082;50.658;4.608;2022-07-09T12:08:47;8.23;;;5.03;;
71296;SDS011;59082;50.658;4.608;2022-07-09T12:11:28;8.60;;;6.32;;
71296;SDS011;59082;50.658;4.608;2022-07-09T12:13:54;8.57;;;7.55;;
71296;SDS011;59082;50.658;4.608;2022-07-09T12:18:49;7.30;;;4.63;;
71296;SDS011;59082;50.658;4.608;2022-07-09T12:21:16;5.20;;;3.63;;
71296;SDS011;59082;50.658;4.608;2022-07-09T12:23:42;3.80;;;2.50;;
71296;SDS011;59082;50.658;4.608;2022-07-09T12:26:08;2.88;;;2.22;;
71296;SDS011;59082;50.658;4.608;2022-07-09T12:28:33;3.60;;;3.27;;
71296;SDS011;59082;50.658;4.608;2022-07-09T12:30:59;3.83;;;2.73;;
71296;SDS011;59082;50.658;4.608;2022-07-09T12:33:25;3.90;;;2.27;;
71296;SDS011;59082;50.658;4.608;2022-07-09T12:35:51;4.68;;;2.72;;
71296;SDS011;59082;50.658;4.608;2022-07-09T12:38:16;4.93;;;2.30;;
71296;SDS011;59082;50.658;4.608;2022-07-09T12:40:42;1.85;;;1.20;;
71296;SDS011;59082;50.658;4.608;2022-07-09T12:43:07;2.93;;;0.80;;
71296;SDS011;59082;50.658;4.608;2022-07-09T12:45:33;3.47;;;0.83;;
71296;SDS011;59082;50.658;4.608;2022-07-09T12:47:58;3.93;;;1.30;;
71296;SDS011;59082;50.658;4.608;2022-07-09T12:50:24;1.73;;;1.50;;
71296;SDS011;59082;50.658;4.608;2022-07-09T12:52:49;1.58;;;1.00;;
71296;SDS011;59082;50.658;4.608;2022-07-09T12:55:16;4.00;;;1.00;;
